Terminal Aerodrome Forecast
Issued by NWS

Home | Current Version | Previous Version | Text Only | Print | Product List | Glossary Off
Versions: 1 2 3 4 5 6 7 8 9 10 11 12 13 14 15 16 17 18 19 20 21

053
FTUS43 KTOP 101723
TAFFOE
TAF
KFOE 101723Z 1018/1118 22014G21KT P6SM SKC
     FM102000 25012G21KT P6SM SKC
     FM102300 33011KT P6SM SKC
     FM110400 02007KT P6SM SCT030 SCT130=

USA.gov is the U.S. government's official web portal to all federal, state and local government web resources and services.